createdAt,value
2022-12-13T00:01:56.992Z,16.77
2022-12-13T00:04:22.651Z,16.65
2022-12-13T00:06:47.483Z,15.60
2022-12-13T00:09:14.823Z,15.98
2022-12-13T00:11:39.415Z,15.18
2022-12-13T00:14:03.721Z,15.55
2022-12-13T00:16:29.051Z,16.60
2022-12-13T00:18:56.524Z,14.77
2022-12-13T00:21:22.129Z,15.88
2022-12-13T00:23:46.854Z,14.27
2022-12-13T00:26:16.120Z,14.80
2022-12-13T00:28:40.817Z,16.13
2022-12-13T00:31:35.267Z,13.85
2022-12-13T00:33:50.394Z,15.65
2022-12-13T00:36:15.256Z,13.98
2022-12-13T00:38:40.095Z,14.88
2022-12-13T00:41:14.385Z,14.45
2022-12-13T00:43:38.682Z,15.10
2022-12-13T00:46:03.300Z,13.35
2022-12-13T00:48:28.468Z,13.57
2022-12-13T00:50:52.735Z,12.98
2022-12-13T00:53:17.114Z,12.75
2022-12-13T00:55:42.523Z,14.13
2022-12-13T00:58:08.333Z,12.38
2022-12-13T01:00:32.618Z,13.55
2022-12-13T01:02:57.027Z,12.18
2022-12-13T01:05:39.996Z,13.32
2022-12-13T01:08:06.536Z,13.07
2022-12-13T01:10:30.951Z,12.98
2022-12-13T01:12:55.269Z,13.05
2022-12-13T01:15:20.937Z,12.15
2022-12-13T01:17:46.992Z,13.75
2022-12-13T01:20:15.054Z,12.57
2022-12-13T01:22:39.535Z,13.30
2022-12-13T01:25:03.804Z,13.45
2022-12-13T01:27:28.135Z,11.65
2022-12-13T01:29:52.438Z,12.05
2022-12-13T01:32:18.324Z,12.20
2022-12-13T01:34:42.567Z,13.35
2022-12-13T01:37:07.029Z,13.65
2022-12-13T01:39:31.404Z,13.18
2022-12-13T01:42:05.591Z,12.55
2022-12-13T01:44:59.326Z,13.88
2022-12-13T01:47:29.261Z,13.38
2022-12-13T01:52:18.886Z,11.90
2022-12-13T01:54:47.331Z,13.95
2022-12-13T01:57:14.451Z,13.85
2022-12-13T01:59:40.860Z,13.50
2022-12-13T02:02:06.265Z,12.88
2022-12-13T02:04:43.870Z,12.75
2022-12-13T02:07:09.739Z,14.40
2022-12-13T02:09:38.631Z,13.82
2022-12-13T02:12:04.984Z,13.30
2022-12-13T02:14:29.243Z,12.57
2022-12-13T02:17:04.310Z,12.27
2022-12-13T02:20:11.601Z,13.55
2022-12-13T02:23:01.149Z,11.88
2022-12-13T02:25:48.968Z,12.38
2022-12-13T02:28:36.492Z,11.95
2022-12-13T02:31:10.229Z,13.32
2022-12-13T02:33:45.353Z,13.35
2022-12-13T02:36:18.732Z,11.93
2022-12-13T02:38:52.514Z,11.65
2022-12-13T02:41:23.090Z,13.68
2022-12-13T02:43:54.353Z,12.35
2022-12-13T02:46:30.302Z,12.00
2022-12-13T02:48:57.780Z,12.32
2022-12-13T02:51:24.002Z,12.70
2022-12-13T02:53:48.835Z,13.40
2022-12-13T02:56:13.284Z,12.15
2022-12-13T02:58:42.030Z,12.75
2022-12-13T03:01:28.656Z,13.90
2022-12-13T03:04:07.717Z,12.73
2022-12-13T03:06:43.562Z,12.65
2022-12-13T03:09:28.604Z,12.38
2022-12-13T03:12:23.712Z,12.98
2022-12-13T03:14:57.253Z,12.02
2022-12-13T03:17:23.990Z,13.55
2022-12-13T03:19:52.538Z,11.32
2022-12-13T03:22:17.252Z,12.88
2022-12-13T03:24:41.549Z,13.07
2022-12-13T03:27:06.288Z,13.05
2022-12-13T03:29:30.588Z,12.63
2022-12-13T03:31:55.149Z,13.00
2022-12-13T03:34:22.498Z,12.35
2022-12-13T03:36:48.561Z,12.65
2022-12-13T03:39:13.041Z,13.07
2022-12-13T03:41:37.517Z,12.48
2022-12-13T03:44:04.374Z,13.70
2022-12-13T03:46:28.783Z,12.30
2022-12-13T03:48:53.050Z,13.70
2022-12-13T03:51:18.167Z,12.27
2022-12-13T03:53:44.590Z,12.48
2022-12-13T03:56:09.440Z,12.88
2022-12-13T03:58:37.632Z,12.95
2022-12-13T04:01:02.722Z,13.55
2022-12-13T04:03:27.431Z,11.98
2022-12-13T04:05:51.856Z,13.30
2022-12-13T04:08:21.639Z,13.43
2022-12-13T04:10:48.318Z,13.90
2022-12-13T04:13:30.269Z,12.38
2022-12-13T04:15:54.600Z,12.15
2022-12-13T04:18:19.966Z,13.52
2022-12-13T04:20:44.392Z,13.20
2022-12-13T04:23:09.793Z,13.65
2022-12-13T04:25:34.948Z,12.77
2022-12-13T04:28:00.852Z,12.98
2022-12-13T04:30:25.197Z,12.30
2022-12-13T04:32:49.990Z,12.68
2022-12-13T04:35:14.867Z,14.38
2022-12-13T04:37:39.384Z,11.90
2022-12-13T04:40:09.199Z,12.35
2022-12-13T04:42:33.441Z,13.45
2022-12-13T04:44:59.216Z,13.68
2022-12-13T04:47:24.127Z,12.80
2022-12-13T04:49:49.163Z,13.13
2022-12-13T04:52:13.656Z,12.95
2022-12-13T04:54:47.275Z,11.82
2022-12-13T04:57:20.304Z,12.85
2022-12-13T04:59:47.031Z,12.63
2022-12-13T05:02:13.074Z,12.25
2022-12-13T05:04:47.627Z,12.40
2022-12-13T05:07:18.186Z,11.85
2022-12-13T05:09:42.553Z,13.65
2022-12-13T05:12:22.019Z,12.15
2022-12-13T05:14:47.799Z,14.15
2022-12-13T05:17:13.477Z,12.13
2022-12-13T05:19:37.868Z,12.70
2022-12-13T05:22:02.440Z,13.63
2022-12-13T05:24:27.020Z,14.27
2022-12-13T05:26:52.899Z,13.13
2022-12-13T05:29:17.251Z,13.15
2022-12-13T05:31:41.660Z,13.73
2022-12-13T05:34:07.543Z,12.82
2022-12-13T05:36:31.978Z,12.85
2022-12-13T05:38:56.375Z,14.40
2022-12-13T05:41:24.750Z,14.25
2022-12-13T05:43:49.047Z,12.60
2022-12-13T05:46:14.049Z,13.35
2022-12-13T05:48:39.406Z,13.55
2022-12-13T05:51:10.534Z,14.23
2022-12-13T05:53:35.650Z,14.35
2022-12-13T05:56:01.227Z,15.15
2022-12-13T05:58:25.702Z,14.00
2022-12-13T06:00:50.025Z,14.13
2022-12-13T06:03:14.447Z,13.93
2022-12-13T06:05:38.961Z,13.65
2022-12-13T06:08:24.254Z,13.15
2022-12-13T06:11:11.304Z,12.98
2022-12-13T06:13:36.760Z,13.57
2022-12-13T06:16:08.090Z,14.32
2022-12-13T06:18:47.978Z,13.80
2022-12-13T06:21:15.105Z,12.38
2022-12-13T06:23:40.843Z,13.30
2022-12-13T06:26:05.846Z,13.60
2022-12-13T06:28:30.634Z,13.07
2022-12-13T06:30:56.415Z,13.98
2022-12-13T06:33:23.395Z,13.95
2022-12-13T06:35:48.494Z,14.27
2022-12-13T06:38:13.517Z,13.75
2022-12-13T06:40:57.048Z,13.88
2022-12-13T06:43:24.946Z,14.07
2022-12-13T06:45:50.879Z,13.38
2022-12-13T06:48:20.088Z,13.50
2022-12-13T06:50:44.870Z,12.23
2022-12-13T06:53:09.226Z,13.48
2022-12-13T06:55:35.913Z,13.60
2022-12-13T06:58:01.591Z,14.00
2022-12-13T07:00:29.984Z,14.50
2022-12-13T07:03:01.723Z,12.52
2022-12-13T07:05:27.422Z,13.32
2022-12-13T07:07:51.804Z,13.95
2022-12-13T07:10:22.095Z,12.48
2022-12-13T07:12:47.391Z,13.77
2022-12-13T07:15:13.462Z,13.63
2022-12-13T07:17:37.808Z,13.55
2022-12-13T07:20:02.458Z,13.07
2022-12-13T07:22:27.674Z,13.80
2022-12-13T07:24:52.043Z,13.38
2022-12-13T07:27:16.339Z,12.98
2022-12-13T07:29:41.186Z,13.52
2022-12-13T07:32:07.151Z,14.15
2022-12-13T07:34:31.660Z,14.23
2022-12-13T07:36:56.090Z,17.75
2022-12-13T07:39:21.722Z,15.02
2022-12-13T07:41:46.739Z,14.45
2022-12-13T07:44:11.131Z,14.90
2022-12-13T07:46:35.530Z,16.27
2022-12-13T07:49:02.964Z,15.77
2022-12-13T07:51:27.350Z,14.02
2022-12-13T07:53:51.708Z,16.10
2022-12-13T07:56:16.071Z,16.10
2022-12-13T07:58:42.202Z,15.10
2022-12-13T08:01:09.178Z,15.70
2022-12-13T08:03:34.050Z,14.20
2022-12-13T08:06:04.495Z,13.65
2022-12-13T08:08:30.719Z,14.85
2022-12-13T08:10:55.442Z,13.38
2022-12-13T08:13:25.927Z,14.10
2022-12-13T08:15:50.291Z,15.40
2022-12-13T08:18:16.025Z,15.05
2022-12-13T08:20:42.897Z,16.13
2022-12-13T08:23:10.798Z,16.30
2022-12-13T08:25:35.253Z,16.38
2022-12-13T08:28:02.317Z,16.92
2022-12-13T08:30:27.228Z,17.13
2022-12-13T08:32:55.997Z,16.48
2022-12-13T08:35:20.388Z,14.77
2022-12-13T08:37:44.781Z,14.68
2022-12-13T08:40:12.227Z,13.93
2022-12-13T08:42:37.197Z,14.48
2022-12-13T08:45:01.498Z,16.20
2022-12-13T08:47:28.304Z,17.77
2022-12-13T08:49:52.723Z,14.68
2022-12-13T08:52:19.576Z,15.10
2022-12-13T08:54:45.348Z,13.50
2022-12-13T08:57:11.202Z,13.93
2022-12-13T08:59:35.477Z,14.57
2022-12-13T09:02:04.822Z,13.48
2022-12-13T09:04:32.342Z,14.80
2022-12-13T09:06:56.838Z,13.70
2022-12-13T09:09:29.210Z,14.48
2022-12-13T09:11:53.545Z,15.43
2022-12-13T09:14:25.665Z,15.23
2022-12-13T09:17:02.863Z,15.55
2022-12-13T09:19:27.981Z,14.38
2022-12-13T09:21:52.415Z,14.88
2022-12-13T09:24:28.502Z,14.50
2022-12-13T09:27:00.452Z,13.45
2022-12-13T09:29:26.490Z,13.98
2022-12-13T09:31:53.307Z,13.52
2022-12-13T09:34:20.504Z,13.02
2022-12-13T09:36:44.995Z,12.85
2022-12-13T09:39:12.843Z,13.57
2022-12-13T09:41:41.154Z,14.25
2022-12-13T09:44:32.377Z,14.18
2022-12-13T09:46:55.611Z,13.13
2022-12-13T09:49:35.270Z,14.05
2022-12-13T09:52:11.677Z,14.38
2022-12-13T09:54:48.880Z,13.68
2022-12-13T09:57:30.939Z,13.75
2022-12-13T10:00:01.789Z,12.90
2022-12-13T10:02:43.444Z,12.75
2022-12-13T10:05:21.944Z,13.32
2022-12-13T10:07:49.369Z,12.98
2022-12-13T10:10:15.323Z,13.95
2022-12-13T10:12:41.363Z,12.60
2022-12-13T10:15:06.708Z,12.23
2022-12-13T10:17:39.686Z,13.50
2022-12-13T10:20:04.997Z,12.40
2022-12-13T10:22:29.673Z,10.90
2022-12-13T10:24:56.574Z,11.70
2022-12-13T10:27:27.422Z,11.07
2022-12-13T10:30:02.516Z,10.73
2022-12-13T10:32:27.762Z,10.20
2022-12-13T10:34:55.413Z,10.32
2022-12-13T10:37:28.990Z,10.77
2022-12-13T10:39:53.671Z,10.15
2022-12-13T10:42:23.491Z,8.48
2022-12-13T10:44:49.436Z,8.52
2022-12-13T10:47:19.086Z,8.05
2022-12-13T10:49:52.082Z,7.65
2022-12-13T10:55:01.385Z,7.43
2022-12-13T10:57:27.314Z,8.32
2022-12-13T10:59:52.883Z,9.77
2022-12-13T11:02:34.570Z,10.32
2022-12-13T11:05:00.155Z,9.52
2022-12-13T11:07:29.320Z,9.68
2022-12-13T11:09:53.644Z,10.82
2022-12-13T11:12:22.213Z,11.18
2022-12-13T11:14:52.709Z,11.15
2022-12-13T11:17:21.401Z,11.70
2022-12-13T11:19:49.059Z,9.88
2022-12-13T11:22:22.943Z,9.93
2022-12-13T11:24:52.474Z,10.88
2022-12-13T11:27:44.221Z,11.15
2022-12-13T11:30:18.179Z,10.73
2022-12-13T11:33:07.265Z,11.77
2022-12-13T11:35:49.142Z,11.27
2022-12-13T11:38:26.746Z,10.05
2022-12-13T11:40:59.152Z,9.85
2022-12-13T11:43:30.686Z,9.63
2022-12-13T11:45:58.891Z,9.82
2022-12-13T11:48:31.136Z,9.55
2022-12-13T11:50:56.726Z,12.20
2022-12-13T11:53:30.120Z,11.35
2022-12-13T11:56:00.213Z,12.23
2022-12-13T12:01:16.712Z,12.82
2022-12-13T12:03:45.743Z,14.68
2022-12-13T12:06:17.655Z,14.93
2022-12-13T12:08:47.693Z,13.23
2022-12-13T12:11:22.059Z,14.68
2022-12-13T12:13:52.681Z,13.75
2022-12-13T12:16:26.266Z,14.40
2022-12-13T12:18:52.206Z,14.40
2022-12-13T12:21:49.674Z,15.65
2022-12-13T12:24:26.860Z,14.18
2022-12-13T12:27:22.028Z,14.75
2022-12-13T12:30:10.980Z,15.32
2022-12-13T12:32:44.609Z,14.02
2022-12-13T12:35:30.487Z,14.32
2022-12-13T12:38:04.186Z,13.32
2022-12-13T12:43:37.794Z,12.82
2022-12-13T12:46:15.794Z,12.18
2022-12-13T12:49:11.648Z,12.30
2022-12-13T12:51:48.476Z,12.52
2022-12-13T12:54:32.217Z,12.68
2022-12-13T12:57:04.939Z,11.85
2022-12-13T12:59:38.788Z,12.45
2022-12-13T13:02:15.500Z,12.25
2022-12-13T13:04:44.428Z,11.30
2022-12-13T13:07:23.162Z,11.35
2022-12-13T13:09:49.705Z,10.73
2022-12-13T13:12:29.307Z,11.10
2022-12-13T13:14:56.397Z,10.63
2022-12-13T13:17:46.726Z,10.40
2022-12-13T13:20:21.764Z,11.50
2022-12-13T13:22:58.524Z,10.18
2022-12-13T13:25:33.131Z,10.32
2022-12-13T13:28:07.647Z,10.32
2022-12-13T13:30:34.555Z,10.15
2022-12-13T13:32:59.739Z,10.35
2022-12-13T13:35:53.714Z,9.93
2022-12-13T13:38:48.425Z,10.40
2022-12-13T13:41:50.276Z,9.55
2022-12-13T13:44:35.632Z,9.18
2022-12-13T13:47:15.087Z,8.90
2022-12-13T13:49:49.880Z,7.57
2022-12-13T13:52:27.299Z,8.90
2022-12-13T13:55:24.076Z,7.70
2022-12-13T13:58:21.779Z,7.90
2022-12-13T14:01:30.416Z,8.18
2022-12-13T14:04:19.185Z,7.82
2022-12-13T14:07:26.997Z,7.25
2022-12-13T14:10:17.463Z,6.93
2022-12-13T14:13:23.013Z,7.43
2022-12-13T14:16:20.178Z,8.57
2022-12-13T14:19:22.672Z,7.78
2022-12-13T14:22:14.781Z,7.70
2022-12-13T14:24:50.584Z,8.40
2022-12-13T14:27:23.836Z,7.82
2022-12-13T14:29:58.378Z,7.97
2022-12-13T14:32:27.584Z,8.02
2022-12-13T14:34:54.303Z,6.72
2022-12-13T14:37:27.609Z,7.93
2022-12-13T14:39:52.065Z,7.38
2022-12-13T14:42:24.570Z,8.88
2022-12-13T14:44:48.917Z,7.43
2022-12-13T14:47:14.907Z,7.47
2022-12-13T14:49:48.739Z,7.43
2022-12-13T14:52:26.956Z,8.55
2022-12-13T14:54:58.067Z,8.55
2022-12-13T14:57:25.055Z,10.18
2022-12-13T14:59:51.149Z,11.40
2022-12-13T15:02:18.249Z,14.63
2022-12-13T15:04:57.332Z,17.15
2022-12-13T15:07:30.090Z,25.15
2022-12-13T15:09:57.220Z,22.80
2022-12-13T15:12:24.973Z,19.25
2022-12-13T15:14:54.284Z,22.10
2022-12-13T15:17:31.485Z,24.25
2022-12-13T15:20:23.600Z,20.60
2022-12-13T15:22:57.401Z,18.27
2022-12-13T15:25:22.244Z,28.23
2022-12-13T15:27:49.786Z,31.58
2022-12-13T15:30:15.887Z,23.75
2022-12-13T15:33:03.478Z,23.83
2022-12-13T15:35:28.524Z,22.83
2022-12-13T15:37:54.350Z,22.33
2022-12-13T15:40:18.827Z,24.10
2022-12-13T15:42:48.004Z,23.55
2022-12-13T15:45:22.436Z,22.35
2022-12-13T15:47:47.858Z,17.70
2022-12-13T15:50:31.966Z,15.70
2022-12-13T15:53:03.534Z,16.45
2022-12-13T15:57:59.384Z,11.25
2022-12-13T16:00:29.073Z,15.15
2022-12-13T16:02:59.102Z,14.00
2022-12-13T16:05:30.377Z,13.88
2022-12-13T16:07:56.849Z,14.13
2022-12-13T16:10:23.520Z,13.45
2022-12-13T16:12:52.551Z,14.48
2022-12-13T16:15:29.365Z,16.60
2022-12-13T16:17:56.133Z,19.65
2022-12-13T16:20:25.631Z,21.00
2022-12-13T16:22:50.300Z,21.50
2022-12-13T16:25:16.650Z,21.23
2022-12-13T16:27:42.625Z,21.02
2022-12-13T16:30:14.402Z,20.85
2022-12-13T16:33:02.828Z,22.23
2022-12-13T16:35:23.451Z,21.50
2022-12-13T16:37:48.166Z,21.58
2022-12-13T16:40:28.408Z,19.70
2022-12-13T16:42:58.624Z,19.60
2022-12-13T16:48:07.883Z,19.88
2022-12-13T16:50:32.727Z,22.02
2022-12-13T16:52:57.066Z,21.88
2022-12-13T16:55:21.448Z,20.08
2022-12-13T16:57:45.781Z,20.85
2022-12-13T17:00:14.479Z,24.00
2022-12-13T17:02:39.417Z,23.23
2022-12-13T17:05:04.665Z,23.40
2022-12-13T17:07:30.725Z,22.65
2022-12-13T17:09:55.040Z,22.98
2022-12-13T17:12:19.752Z,22.80
2022-12-13T17:14:44.081Z,23.00
2022-12-13T17:17:15.743Z,25.23
2022-12-13T17:19:41.803Z,33.08
2022-12-13T17:22:06.137Z,31.83
2022-12-13T17:24:31.982Z,34.50
2022-12-13T17:26:57.357Z,31.83
2022-12-13T17:29:21.723Z,31.17
2022-12-13T17:31:46.183Z,36.20
2022-12-13T17:34:12.355Z,38.03
2022-12-13T17:36:36.763Z,37.83
2022-12-13T17:39:02.995Z,35.95
2022-12-13T17:41:27.377Z,30.95
2022-12-13T17:43:52.662Z,27.05
2022-12-13T17:46:18.967Z,24.88
2022-12-13T17:48:45.600Z,22.30
2022-12-13T17:51:12.372Z,25.60
2022-12-13T17:53:36.980Z,25.30
2022-12-13T17:56:02.683Z,25.88
2022-12-13T17:58:27.979Z,24.88
2022-12-13T18:00:52.566Z,28.60
2022-12-13T18:03:16.962Z,26.05
2022-12-13T18:05:42.481Z,27.05
2022-12-13T18:08:08.354Z,27.10
2022-12-13T18:10:33.187Z,24.45
2022-12-13T18:12:58.251Z,27.45
2022-12-13T18:15:22.695Z,26.23
2022-12-13T18:18:10.648Z,25.85
2022-12-13T18:20:31.800Z,28.05
2022-12-13T18:22:56.667Z,27.40
2022-12-13T18:25:22.397Z,28.23
2022-12-13T18:27:47.235Z,27.80
2022-12-13T18:30:13.165Z,30.73
2022-12-13T18:32:37.475Z,31.52
2022-12-13T18:35:01.881Z,31.77
2022-12-13T18:37:27.630Z,31.63
2022-12-13T18:39:54.867Z,29.73
2022-12-13T18:42:20.848Z,30.08
2022-12-13T18:44:54.269Z,29.42
2022-12-13T18:47:21.248Z,41.45
2022-12-13T18:49:54.718Z,46.08
2022-12-13T18:52:19.890Z,43.10
2022-12-13T18:54:54.190Z,47.63
2022-12-13T18:57:21.354Z,49.05
2022-12-13T18:59:53.991Z,40.88
2022-12-13T19:02:19.940Z,40.05
2022-12-13T19:04:55.364Z,36.53
2022-12-13T19:07:20.386Z,35.25
2022-12-13T19:09:54.733Z,38.28
2022-12-13T19:12:21.315Z,43.67
2022-12-13T19:14:47.676Z,39.50
2022-12-13T19:17:19.784Z,42.13
2022-12-13T19:19:45.258Z,40.40
2022-12-13T19:22:12.831Z,44.13
2022-12-13T19:24:37.243Z,41.75
2022-12-13T19:27:01.866Z,44.67
2022-12-13T19:29:28.343Z,47.75
2022-12-13T19:31:52.887Z,50.80
2022-12-13T19:34:18.009Z,36.42
2022-12-13T19:36:42.740Z,40.95
2022-12-13T19:39:07.343Z,35.72
2022-12-13T19:41:33.577Z,35.03
2022-12-13T19:43:58.142Z,38.67
2022-12-13T19:46:24.269Z,42.08
2022-12-13T19:48:49.264Z,38.60
2022-12-13T19:51:13.788Z,33.42
2022-12-13T19:53:39.173Z,32.97
2022-12-13T19:56:09.461Z,31.63
2022-12-13T19:58:34.143Z,39.42
2022-12-13T20:01:04.138Z,92.72
2022-12-13T20:03:33.423Z,148.60
2022-12-13T20:05:58.713Z,136.02
2022-12-13T20:08:23.179Z,116.95
2022-12-13T20:10:47.950Z,99.28
2022-12-13T20:13:12.416Z,77.82
2022-12-13T20:15:37.916Z,60.65
2022-12-13T20:18:02.864Z,72.93
2022-12-13T20:20:47.132Z,88.35
2022-12-13T20:23:14.382Z,89.20
2022-12-13T20:25:38.934Z,88.93
2022-12-13T20:28:03.582Z,46.45
2022-12-13T20:30:30.337Z,44.42
2022-12-13T20:32:57.790Z,50.13
2022-12-13T20:35:22.438Z,48.45
2022-12-13T20:37:49.282Z,49.58
2022-12-13T20:40:14.651Z,46.75
2022-12-13T20:42:39.390Z,41.40
2022-12-13T20:45:04.764Z,34.72
2022-12-13T20:47:32.764Z,37.08
2022-12-13T20:49:59.769Z,34.90
2022-12-13T20:52:24.645Z,30.85
2022-12-13T20:54:50.845Z,28.27
2022-12-13T20:57:15.473Z,31.92
2022-12-13T20:59:40.198Z,29.63
2022-12-13T21:02:04.793Z,31.63
2022-12-13T21:04:29.535Z,30.58
2022-12-13T21:06:54.007Z,30.75
2022-12-13T21:09:18.755Z,32.03
2022-12-13T21:11:46.898Z,30.92
2022-12-13T21:14:20.773Z,30.98
2022-12-13T21:16:48.633Z,31.02
2022-12-13T21:19:15.106Z,38.65
2022-12-13T21:21:40.042Z,39.38
2022-12-13T21:24:04.788Z,60.88
2022-12-13T21:26:34.988Z,66.25
2022-12-13T21:29:03.541Z,56.53
2022-12-13T21:31:28.726Z,53.58
2022-12-13T21:33:54.958Z,58.80
2022-12-13T21:36:22.687Z,51.78
2022-12-13T21:38:47.468Z,42.60
2022-12-13T21:41:13.323Z,38.63
2022-12-13T21:43:39.658Z,39.00
2022-12-13T21:46:07.829Z,34.22
2022-12-13T21:48:32.653Z,35.03
2022-12-13T21:50:57.143Z,33.97
2022-12-13T21:53:22.242Z,34.97
2022-12-13T21:55:48.144Z,36.53
2022-12-13T21:58:30.204Z,55.38
2022-12-13T22:00:54.905Z,79.65
2022-12-13T22:03:21.624Z,78.70
2022-12-13T22:05:46.409Z,75.03
2022-12-13T22:08:10.894Z,57.50
2022-12-13T22:10:55.367Z,63.47
2022-12-13T22:13:20.380Z,58.80
2022-12-13T22:15:45.828Z,84.35
2022-12-13T22:18:10.766Z,113.88
2022-12-13T22:20:36.795Z,100.25
2022-12-13T22:23:01.495Z,84.32
2022-12-13T22:25:26.672Z,63.25
2022-12-13T22:27:51.753Z,54.45
2022-12-13T22:30:16.873Z,51.65
2022-12-13T22:32:42.460Z,58.72
2022-12-13T22:35:08.773Z,62.90
2022-12-13T22:37:37.593Z,60.65
2022-12-13T22:40:02.432Z,57.22
2022-12-13T22:42:27.856Z,45.55
2022-12-13T22:44:52.484Z,40.38
2022-12-13T22:47:17.362Z,36.53
2022-12-13T22:49:42.146Z,34.70
2022-12-13T22:52:07.977Z,32.60
2022-12-13T22:54:34.289Z,35.17
2022-12-13T22:57:00.083Z,36.40
2022-12-13T22:59:24.667Z,34.97
2022-12-13T23:01:49.396Z,37.42
2022-12-13T23:04:14.216Z,38.05
2022-12-13T23:06:40.526Z,35.92
2022-12-13T23:09:08.028Z,36.58
2022-12-13T23:11:52.690Z,36.08
2022-12-13T23:14:19.000Z,34.90
2022-12-13T23:16:44.602Z,36.05
2022-12-13T23:19:40.167Z,36.25
2022-12-13T23:21:57.401Z,34.95
2022-12-13T23:24:22.413Z,36.55
2022-12-13T23:26:48.531Z,36.88
2022-12-13T23:29:13.859Z,36.40
2022-12-13T23:31:40.320Z,36.53
2022-12-13T23:34:05.007Z,33.42
2022-12-13T23:36:30.157Z,32.05
2022-12-13T23:38:54.937Z,33.40
2022-12-13T23:41:23.613Z,34.03
2022-12-13T23:43:50.440Z,38.00
2022-12-13T23:46:17.124Z,51.25
2022-12-13T23:48:42.445Z,44.05
2022-12-13T23:51:09.072Z,37.42
2022-12-13T23:53:33.881Z,43.83
2022-12-13T23:55:58.600Z,38.33
2022-12-13T23:58:25.787Z,37.28
